createdAt,value
2019-04-23T00:00:54.799Z,16.00
2019-04-23T00:03:32.734Z,16.00
2019-04-23T00:06:06.731Z,16.00
2019-04-23T00:13:44.229Z,15.80
2019-04-23T00:18:46.104Z,15.90
2019-04-23T00:21:20.726Z,15.80
2019-04-23T00:24:03.096Z,15.80
2019-04-23T00:29:19.020Z,15.70
2019-04-23T00:31:38.901Z,15.70
2019-04-23T00:34:13.242Z,15.70
2019-04-23T00:36:44.748Z,15.70
2019-04-23T00:39:16.717Z,15.60
2019-04-23T00:41:54.578Z,15.50
2019-04-23T00:44:36.070Z,15.50
2019-04-23T00:47:06.764Z,15.60
2019-04-23T00:49:32.556Z,15.60
2019-04-23T00:52:15.233Z,15.70
2019-04-23T00:54:49.310Z,15.70
2019-04-23T01:00:13.904Z,15.70
2019-04-23T01:02:29.717Z,15.60
2019-04-23T01:05:04.741Z,15.40
2019-04-23T01:07:33.562Z,15.30
2019-04-23T01:10:08.398Z,15.10
2019-04-23T01:15:09.985Z,14.90
2019-04-23T01:17:57.756Z,14.90
2019-04-23T01:20:14.804Z,14.80
2019-04-23T01:22:31.896Z,14.90
2019-04-23T01:25:21.252Z,14.90
2019-04-23T01:28:15.973Z,14.90
2019-04-23T01:30:47.179Z,14.90
2019-04-23T01:33:29.609Z,14.80
2019-04-23T01:36:14.022Z,14.60
2019-04-23T01:38:35.120Z,14.50
2019-04-23T01:41:00.423Z,14.60
2019-04-23T01:48:46.892Z,14.70
2019-04-23T01:51:20.459Z,14.70
2019-04-23T01:53:49.563Z,14.80
2019-04-23T01:56:24.383Z,14.80
2019-04-23T01:59:03.554Z,14.80
2019-04-23T02:01:32.825Z,14.70
2019-04-23T02:04:15.255Z,14.30
2019-04-23T02:06:38.879Z,14.30
2019-04-23T02:09:13.780Z,14.30
2019-04-23T02:11:54.685Z,14.20
2019-04-23T02:14:26.764Z,14.20
2019-04-23T02:16:55.140Z,14.10
2019-04-23T02:19:33.248Z,14.10
2019-04-23T02:22:09.086Z,14.10
2019-04-23T02:24:41.482Z,14.20
2019-04-23T02:27:15.189Z,14.20
2019-04-23T02:29:51.384Z,14.30
2019-04-23T02:35:18.499Z,14.20
2019-04-23T02:37:45.722Z,14.10
2019-04-23T02:40:20.257Z,14.00
2019-04-23T02:45:09.083Z,13.80
2019-04-23T02:47:54.911Z,13.80
2019-04-23T02:50:34.859Z,13.70
2019-04-23T02:53:02.495Z,13.60
2019-04-23T02:55:39.278Z,13.60
2019-04-23T02:58:01.885Z,13.50
2019-04-23T03:00:38.167Z,13.50
2019-04-23T03:06:03.176Z,13.50
2019-04-23T03:08:20.986Z,13.50
2019-04-23T03:10:59.743Z,13.60
2019-04-23T03:13:34.915Z,13.50
2019-04-23T03:19:09.758Z,13.70
2019-04-23T03:24:34.993Z,13.70
2019-04-23T03:27:14.357Z,13.60
2019-04-23T03:29:35.417Z,13.60
2019-04-23T03:37:24.774Z,13.60
2019-04-23T03:42:19.993Z,13.40
2019-04-23T03:50:32.199Z,13.40
2019-04-23T03:52:35.460Z,13.30
2019-04-23T03:55:29.809Z,13.30
2019-04-23T04:05:33.423Z,13.40
2019-04-23T04:10:33.958Z,13.30
2019-04-23T04:13:07.210Z,13.30
2019-04-23T04:23:27.690Z,13.20
2019-04-23T04:28:38.816Z,13.30
2019-04-23T04:33:55.475Z,13.30
2019-04-23T04:38:56.706Z,13.40
2019-04-23T04:41:29.106Z,13.30
2019-04-23T04:49:07.862Z,13.20
2019-04-23T04:51:37.844Z,13.20
2019-04-23T04:54:11.711Z,13.10
2019-04-23T04:59:13.930Z,13.50
2019-04-23T05:01:51.765Z,13.40
2019-04-23T05:07:02.642Z,13.80
2019-04-23T05:09:38.107Z,14.00
2019-04-23T05:14:43.967Z,14.10
2019-04-23T05:17:16.686Z,14.20
2019-04-23T05:19:43.823Z,14.20
2019-04-23T05:22:30.529Z,14.30
2019-04-23T05:24:47.978Z,14.30
2019-04-23T05:27:17.596Z,14.20
2019-04-23T05:30:02.290Z,14.00
2019-04-23T05:32:26.529Z,14.00
2019-04-23T05:35:06.321Z,14.10
2019-04-23T05:37:56.855Z,14.00
2019-04-23T05:40:18.698Z,14.00
2019-04-23T05:45:15.803Z,14.20
2019-04-23T05:50:33.887Z,14.30
2019-04-23T05:52:59.607Z,14.30
2019-04-23T05:55:26.931Z,14.50
2019-04-23T05:58:08.841Z,14.70
2019-04-23T06:03:16.315Z,15.10
2019-04-23T06:06:07.606Z,15.10
2019-04-23T06:08:25.230Z,15.20
2019-04-23T06:10:57.196Z,15.20
2019-04-23T06:13:26.922Z,15.30
2019-04-23T06:15:58.143Z,15.10
2019-04-23T06:18:38.961Z,15.10
2019-04-23T06:21:10.230Z,15.10
2019-04-23T06:24:06.271Z,15.20
2019-04-23T06:26:30.303Z,15.20
2019-04-23T06:28:56.256Z,15.30
2019-04-23T06:31:38.126Z,15.30
2019-04-23T06:34:11.144Z,15.20
2019-04-23T06:36:32.715Z,15.30
2019-04-23T06:39:01.242Z,15.50
2019-04-23T06:41:46.428Z,15.70
2019-04-23T06:44:24.055Z,15.70
2019-04-23T06:46:59.717Z,15.50
2019-04-23T06:49:30.691Z,15.40
2019-04-23T06:59:47.107Z,16.10
2019-04-23T07:05:02.207Z,16.40
2019-04-23T07:09:57.918Z,16.50
2019-04-23T07:12:39.008Z,16.50
2019-04-23T07:15:13.281Z,16.60
2019-04-23T07:17:34.513Z,16.30
2019-04-23T07:20:15.270Z,16.30
2019-04-23T07:22:51.267Z,16.40
2019-04-23T07:25:17.526Z,16.60
2019-04-23T07:27:49.340Z,16.40
2019-04-23T07:39:45.715Z,16.90
2019-04-23T07:47:47.404Z,17.50
2019-04-23T07:53:00.307Z,17.70
2019-04-23T07:55:37.668Z,17.60
2019-04-23T07:58:10.557Z,17.60
2019-04-23T08:00:41.863Z,17.60
2019-04-23T08:03:17.503Z,17.50
2019-04-23T08:05:39.571Z,17.20
2019-04-23T08:11:14.367Z,18.00
2019-04-23T08:16:08.897Z,18.70
2019-04-23T08:18:45.303Z,19.00
2019-04-23T08:21:14.603Z,19.00
2019-04-23T08:23:57.226Z,19.30
2019-04-23T08:29:12.287Z,20.40
2019-04-23T08:31:43.163Z,20.40
2019-04-23T08:34:28.444Z,20.70
2019-04-23T08:36:49.279Z,20.80
2019-04-23T08:39:30.921Z,21.00
2019-04-23T08:42:12.475Z,21.40
2019-04-23T08:47:27.803Z,21.90
2019-04-23T08:49:56.699Z,22.60
2019-04-23T08:52:37.048Z,22.60
2019-04-23T08:55:21.032Z,22.80
2019-04-23T08:57:43.255Z,23.00
2019-04-23T09:00:31.951Z,23.30
2019-04-23T09:03:11.132Z,23.60
2019-04-23T09:05:32.555Z,24.10
2019-04-23T09:08:11.705Z,24.40
2019-04-23T09:10:34.207Z,24.50
2019-04-23T09:13:33.206Z,24.50
2019-04-23T09:15:44.953Z,24.40
2019-04-23T09:18:16.687Z,24.40
2019-04-23T09:20:42.981Z,23.30
2019-04-23T09:23:28.354Z,22.10
2019-04-23T09:25:53.543Z,22.00
2019-04-23T09:31:55.126Z,22.70
2019-04-23T09:34:07.231Z,22.70
2019-04-23T09:37:07.813Z,23.00
2019-04-23T09:39:51.219Z,24.60
2019-04-23T09:42:32.215Z,24.60
2019-04-23T09:45:12.916Z,24.60
2019-04-23T09:47:48.855Z,24.50
2019-04-23T09:50:18.895Z,25.10
2019-04-23T09:53:01.372Z,25.70
2019-04-23T09:55:32.461Z,26.30
2019-04-23T09:58:00.502Z,26.30
2019-04-23T10:00:38.045Z,26.40
2019-04-23T10:02:53.043Z,26.10
2019-04-23T10:05:22.057Z,26.20
2019-04-23T10:07:57.125Z,26.10
2019-04-23T10:10:18.618Z,25.90
2019-04-23T10:12:53.921Z,25.80
2019-04-23T10:15:33.224Z,26.00
2019-04-23T10:18:00.612Z,26.40
2019-04-23T10:20:34.473Z,26.60
2019-04-23T10:23:08.326Z,26.60
2019-04-23T10:25:41.315Z,26.10
2019-04-23T10:28:20.866Z,26.00
2019-04-23T10:30:54.639Z,25.90
2019-04-23T10:33:29.631Z,25.90
2019-04-23T10:36:08.845Z,25.90
2019-04-23T10:38:36.519Z,26.10
2019-04-23T10:41:10.128Z,26.40
2019-04-23T10:43:45.817Z,26.60
2019-04-23T10:46:58.296Z,26.40
2019-04-23T10:49:53.183Z,25.90
2019-04-23T10:52:13.308Z,25.90
2019-04-23T11:07:34.799Z,24.40
2019-04-23T11:17:59.638Z,24.20
2019-04-23T11:20:49.420Z,24.20
2019-04-23T11:23:15.049Z,24.30
2019-04-23T11:25:45.096Z,24.40
2019-04-23T11:28:33.572Z,24.60
2019-04-23T11:30:45.123Z,24.60
2019-04-23T11:33:30.179Z,24.60
2019-04-23T11:36:33.585Z,24.80
2019-04-23T11:38:50.749Z,24.90
2019-04-23T11:41:15.104Z,24.80
2019-04-23T11:43:37.612Z,24.70
2019-04-23T11:46:32.565Z,24.30
2019-04-23T11:49:02.432Z,24.30
2019-04-23T11:56:51.303Z,24.20
2019-04-23T11:59:07.467Z,24.30
2019-04-23T12:04:26.515Z,24.50
2019-04-23T12:06:59.702Z,24.60
2019-04-23T12:09:48.815Z,24.60
2019-04-23T12:12:17.183Z,24.50
2019-04-23T12:14:51.305Z,24.60
2019-04-23T12:22:36.806Z,24.60
2019-04-23T12:27:52.214Z,24.40
2019-04-23T12:30:27.550Z,24.50
2019-04-23T12:35:25.714Z,24.60
2019-04-23T12:38:03.329Z,24.60
2019-04-23T12:40:32.333Z,24.70
2019-04-23T12:43:13.306Z,24.70
2019-04-23T12:45:50.482Z,24.60
2019-04-23T12:48:28.230Z,24.60
2019-04-23T12:53:30.557Z,24.60
2019-04-23T12:56:03.674Z,24.70
2019-04-23T12:58:29.417Z,24.60
2019-04-23T13:01:09.943Z,24.60
2019-04-23T13:03:41.655Z,24.70
2019-04-23T13:06:17.264Z,24.70
2019-04-23T13:09:18.504Z,24.80
2019-04-23T13:11:30.059Z,24.80
2019-04-23T13:14:00.407Z,24.90
2019-04-23T13:16:54.069Z,24.80
2019-04-23T13:19:14.668Z,24.80
2019-04-23T13:24:24.291Z,24.90
2019-04-23T13:26:44.563Z,25.00
2019-04-23T13:29:32.906Z,25.00
2019-04-23T13:31:59.303Z,24.90
2019-04-23T13:34:41.199Z,25.00
2019-04-23T13:37:13.755Z,25.00
2019-04-23T13:39:41.805Z,25.00
2019-04-23T13:42:24.306Z,25.00
2019-04-23T13:44:51.863Z,25.00
2019-04-23T13:47:32.282Z,25.00
2019-04-23T13:49:58.408Z,25.00
2019-04-23T13:57:57.715Z,24.90
2019-04-23T14:00:41.893Z,25.00
2019-04-23T14:02:44.209Z,25.00
2019-04-23T14:05:22.079Z,25.00
2019-04-23T14:08:03.301Z,25.00
2019-04-23T15:29:49.886Z,24.10
2019-04-23T15:32:36.276Z,24.00
2019-04-23T15:35:15.985Z,24.00
2019-04-23T15:38:16.408Z,24.00
2019-04-23T15:40:16.525Z,24.00
2019-04-23T15:42:57.915Z,24.00
2019-04-23T15:45:22.956Z,24.00
2019-04-23T15:53:01.331Z,23.70
2019-04-23T15:55:44.386Z,23.60
2019-04-23T15:58:15.701Z,23.60
2019-04-23T16:00:55.823Z,23.50
2019-04-23T16:02:50.319Z,23.60
2019-04-23T16:05:24.482Z,23.60
2019-04-23T16:08:23.950Z,23.60
2019-04-23T16:11:05.204Z,23.70
2019-04-23T16:13:36.545Z,23.70
2019-04-23T16:16:18.749Z,23.50
2019-04-23T16:18:55.326Z,23.50
2019-04-23T16:21:29.208Z,23.50
2019-04-23T16:23:57.017Z,23.60
2019-04-23T16:26:34.234Z,23.70
2019-04-23T17:09:05.190Z,23.60
2019-04-23T17:11:34.267Z,23.60
2019-04-23T17:14:13.540Z,23.50
2019-04-23T17:16:38.356Z,23.60
2019-04-23T17:21:53.373Z,23.50
2019-04-23T17:24:23.084Z,23.40
2019-04-23T17:27:05.458Z,23.40
2019-04-23T17:29:38.519Z,23.30
2019-04-23T17:32:05.676Z,23.30
2019-04-23T17:40:06.036Z,23.10
2019-04-23T17:42:27.320Z,23.00
2019-04-23T17:45:16.835Z,23.00
2019-04-23T17:47:45.982Z,22.90
2019-04-23T17:52:58.369Z,22.80
2019-04-23T17:55:25.465Z,22.60
2019-04-23T17:58:03.447Z,22.60
2019-04-23T18:00:34.083Z,22.60
2019-04-23T18:05:45.266Z,22.40
2019-04-23T18:08:12.500Z,22.30
2019-04-23T18:10:48.732Z,22.30
2019-04-23T18:13:23.887Z,22.20
2019-04-23T18:15:57.091Z,22.10
2019-04-23T18:18:32.131Z,22.00
2019-04-23T18:21:29.425Z,22.00
2019-04-23T18:24:02.727Z,21.90
2019-04-23T18:26:58.006Z,21.80
2019-04-23T18:29:43.228Z,21.70
2019-04-23T18:32:11.549Z,21.70
2019-04-23T18:34:53.871Z,21.70
2019-04-23T18:39:48.187Z,21.50
2019-04-23T18:42:25.778Z,21.40
2019-04-23T18:50:22.980Z,21.30
2019-04-23T18:52:42.933Z,21.20
2019-04-23T18:55:18.789Z,21.10
2019-04-23T18:57:45.740Z,21.10
2019-04-23T19:00:18.755Z,21.00
2019-04-23T19:05:30.919Z,20.90
2019-04-23T19:24:21.929Z,20.60
2019-04-23T19:27:05.736Z,20.60
2019-04-23T19:45:55.715Z,20.30
2019-04-23T19:48:27.118Z,20.20
2019-04-23T19:53:41.956Z,20.10
2019-04-23T19:56:08.810Z,20.10
2019-04-23T19:58:38.516Z,20.00
2019-04-23T20:06:18.687Z,19.90
2019-04-23T20:09:13.440Z,19.80
2019-04-23T20:11:29.575Z,19.60
2019-04-23T20:16:38.382Z,19.50
2019-04-23T20:19:03.097Z,19.50
2019-04-23T20:26:49.321Z,19.50
2019-04-23T20:31:33.487Z,19.50
2019-04-23T20:34:59.152Z,19.30
2019-04-23T20:37:27.829Z,19.30
2019-04-23T20:39:52.472Z,19.20
2019-04-23T20:42:31.333Z,19.10
2019-04-23T20:47:34.743Z,19.10
2019-04-23T20:50:03.414Z,19.10
2019-04-23T20:52:33.987Z,19.00
2019-04-23T20:57:45.303Z,18.90
2019-04-23T21:00:24.095Z,18.80
2019-04-23T21:03:16.918Z,18.90
2019-04-23T21:05:24.092Z,18.80
2019-04-23T21:10:36.909Z,18.60
2019-04-23T21:13:21.926Z,18.60
2019-04-23T21:15:47.225Z,18.50
2019-04-23T21:18:24.514Z,18.50
2019-04-23T21:21:08.120Z,18.50
2019-04-23T21:23:19.507Z,18.40
2019-04-23T21:25:56.106Z,18.30
2019-04-23T21:28:38.194Z,18.30
2019-04-23T21:31:06.056Z,18.20
2019-04-23T21:33:47.873Z,18.10
2019-04-23T21:44:21.870Z,18.00
2019-04-23T21:46:47.929Z,17.90
2019-04-23T21:49:25.286Z,17.90
2019-04-23T21:51:49.204Z,17.90
2019-04-23T21:54:29.352Z,17.80
2019-04-23T21:57:00.540Z,17.80
2019-04-23T21:59:39.095Z,17.80
2019-04-23T22:04:45.678Z,17.60
2019-04-23T22:07:20.782Z,17.60
2019-04-23T22:09:53.353Z,17.60
2019-04-23T22:12:23.159Z,17.60
2019-04-23T22:17:33.013Z,17.60
2019-04-23T22:20:14.461Z,17.60
2019-04-23T22:22:51.213Z,17.50
2019-04-23T22:25:06.228Z,17.40
2019-04-23T22:27:48.176Z,17.40
2019-04-23T22:30:22.452Z,17.40
2019-04-23T22:33:10.103Z,17.30
2019-04-23T22:35:33.447Z,17.30
2019-04-23T22:40:34.539Z,17.20
2019-04-23T22:43:17.785Z,17.20
2019-04-23T22:45:54.521Z,17.10
2019-04-23T22:48:13.841Z,17.10
2019-04-23T22:50:56.691Z,17.10
2019-04-23T22:53:43.666Z,17.10
2019-04-23T22:56:03.277Z,17.10
2019-04-23T22:58:42.067Z,17.10
2019-04-23T23:01:26.221Z,17.00
2019-04-23T23:03:59.628Z,17.00
2019-04-23T23:06:44.737Z,17.00
2019-04-23T23:09:18.980Z,16.90
2019-04-23T23:11:45.719Z,16.90
2019-04-23T23:14:16.974Z,16.90
2019-04-23T23:16:47.524Z,16.80
2019-04-23T23:19:22.245Z,16.80
2019-04-23T23:22:03.382Z,16.80
2019-04-23T23:29:27.932Z,16.80
2019-04-23T23:32:18.811Z,16.80
2019-04-23T23:35:01.003Z,16.80
2019-04-23T23:37:15.635Z,16.80
2019-04-23T23:40:02.393Z,16.80
2019-04-23T23:42:23.590Z,16.60
2019-04-23T23:45:03.411Z,16.60
2019-04-23T23:47:29.299Z,16.50
2019-04-23T23:50:17.916Z,16.30
2019-04-23T23:52:48.806Z,16.20
2019-04-23T23:55:15.769Z,16.10
2019-04-23T23:57:51.147Z,16.10
